sensor_id;sensor_type;location;lat;lon;timestamp;pressure;altitude;pressure_sealevel;temperature;humidity
2711;BME280;20721;47.402;8.550;2023-05-03T00:00:15;96717;;;12.30;64.70
2711;BME280;20721;47.402;8.550;2023-05-03T00:01:13;96717;;;12.28;64.75
2711;BME280;20721;47.402;8.550;2023-05-03T00:02:13;96719;;;12.27;64.92
2711;BME280;20721;47.402;8.550;2023-05-03T00:03:13;96715;;;12.26;65.17
2711;BME280;20721;47.402;8.550;2023-05-03T00:05:14;96713;;;12.27;64.74
2711;BME280;20721;47.402;8.550;2023-05-03T00:06:13;96716;;;12.24;64.96
2711;BME280;20721;47.402;8.550;2023-05-03T00:08:13;96715;;;12.22;64.67
2711;BME280;20721;47.402;8.550;2023-05-03T00:09:13;96717;;;12.19;64.67
2711;BME280;20721;47.402;8.550;2023-05-03T00:10:15;96717;;;12.16;64.98
2711;BME280;20721;47.402;8.550;2023-05-03T00:12:13;96718;;;12.12;65.06
2711;BME280;20721;47.402;8.550;2023-05-03T00:13:13;96717;;;12.09;65.09
2711;BME280;20721;47.402;8.550;2023-05-03T00:14:13;96720;;;12.05;65.26
2711;BME280;20721;47.402;8.550;2023-05-03T00:15:13;96717;;;12.02;65.40
2711;BME280;20721;47.402;8.550;2023-05-03T00:16:13;96719;;;12.01;65.54
2711;BME280;20721;47.402;8.550;2023-05-03T00:17:16;96720;;;11.99;65.67
2711;BME280;20721;47.402;8.550;2023-05-03T00:18:13;96719;;;11.93;65.83
2711;BME280;20721;47.402;8.550;2023-05-03T00:19:25;96717;;;11.88;66.00
2711;BME280;20721;47.402;8.550;2023-05-03T00:20:14;96721;;;11.80;66.37
2711;BME280;20721;47.402;8.550;2023-05-03T00:21:13;96719;;;11.68;66.85
2711;BME280;20721;47.402;8.550;2023-05-03T00:22:13;96720;;;11.64;67.12
2711;BME280;20721;47.402;8.550;2023-05-03T00:23:13;96716;;;11.66;67.04
2711;BME280;20721;47.402;8.550;2023-05-03T00:24:13;96713;;;11.67;67.10
2711;BME280;20721;47.402;8.550;2023-05-03T00:25:14;96714;;;11.63;67.28
2711;BME280;20721;47.402;8.550;2023-05-03T00:26:13;96716;;;11.53;67.50
2711;BME280;20721;47.402;8.550;2023-05-03T00:27:13;96708;;;11.49;67.77
2711;BME280;20721;47.402;8.550;2023-05-03T00:29:13;96710;;;11.50;67.75
2711;BME280;20721;47.402;8.550;2023-05-03T00:30:13;96712;;;11.45;67.96
2711;BME280;20721;47.402;8.550;2023-05-03T00:31:13;96711;;;11.46;67.96
2711;BME280;20721;47.402;8.550;2023-05-03T00:32:13;96711;;;11.50;67.92
2711;BME280;20721;47.402;8.550;2023-05-03T00:33:13;96709;;;11.53;67.90
2711;BME280;20721;47.402;8.550;2023-05-03T00:34:13;96709;;;11.56;67.73
2711;BME280;20721;47.402;8.550;2023-05-03T00:35:13;96708;;;11.59;67.57
2711;BME280;20721;47.402;8.550;2023-05-03T00:36:13;96704;;;11.57;67.56
2711;BME280;20721;47.402;8.550;2023-05-03T00:37:13;96707;;;11.58;67.67
2711;BME280;20721;47.402;8.550;2023-05-03T00:41:13;96700;;;11.55;67.84
2711;BME280;20721;47.402;8.550;2023-05-03T00:42:13;96698;;;11.54;67.86
2711;BME280;20721;47.402;8.550;2023-05-03T00:43:13;96697;;;11.52;67.91
2711;BME280;20721;47.402;8.550;2023-05-03T00:44:13;96695;;;11.53;67.94
2711;BME280;20721;47.402;8.550;2023-05-03T00:45:13;96700;;;11.57;67.72
2711;BME280;20721;47.402;8.550;2023-05-03T00:46:17;96699;;;11.60;67.64
2711;BME280;20721;47.402;8.550;2023-05-03T00:48:13;96700;;;11.57;67.69
2711;BME280;20721;47.402;8.550;2023-05-03T00:49:13;96698;;;11.60;67.69
2711;BME280;20721;47.402;8.550;2023-05-03T00:50:13;96698;;;11.63;67.60
2711;BME280;20721;47.402;8.550;2023-05-03T00:51:14;96701;;;11.66;67.50
2711;BME280;20721;47.402;8.550;2023-05-03T00:52:13;96703;;;11.70;67.42
2711;BME280;20721;47.402;8.550;2023-05-03T00:53:13;96702;;;11.71;67.21
2711;BME280;20721;47.402;8.550;2023-05-03T00:54:16;96697;;;11.74;67.14
2711;BME280;20721;47.402;8.550;2023-05-03T00:55:13;96699;;;11.76;66.88
2711;BME280;20721;47.402;8.550;2023-05-03T00:56:14;96701;;;11.79;66.93
2711;BME280;20721;47.402;8.550;2023-05-03T00:58:13;96700;;;11.76;66.63
2711;BME280;20721;47.402;8.550;2023-05-03T00:59:13;96704;;;11.75;66.70
2711;BME280;20721;47.402;8.550;2023-05-03T01:00:13;96702;;;11.74;66.67
2711;BME280;20721;47.402;8.550;2023-05-03T01:02:13;96701;;;11.73;66.62
2711;BME280;20721;47.402;8.550;2023-05-03T01:03:13;96698;;;11.70;66.68
2711;BME280;20721;47.402;8.550;2023-05-03T01:04:13;96700;;;11.67;66.81
2711;BME280;20721;47.402;8.550;2023-05-03T01:05:13;96698;;;11.65;66.75
2711;BME280;20721;47.402;8.550;2023-05-03T01:07:17;96695;;;11.59;67.04
2711;BME280;20721;47.402;8.550;2023-05-03T01:08:15;96693;;;11.56;67.11
2711;BME280;20721;47.402;8.550;2023-05-03T01:09:19;96691;;;11.54;67.07
2711;BME280;20721;47.402;8.550;2023-05-03T01:10:17;96690;;;11.52;67.17
2711;BME280;20721;47.402;8.550;2023-05-03T01:12:17;96693;;;11.54;67.06
2711;BME280;20721;47.402;8.550;2023-05-03T01:13:13;96690;;;11.52;67.17
2711;BME280;20721;47.402;8.550;2023-05-03T01:15:20;96687;;;11.54;67.14
2711;BME280;20721;47.402;8.550;2023-05-03T01:17:13;96690;;;11.53;67.05
2711;BME280;20721;47.402;8.550;2023-05-03T01:18:15;96690;;;11.50;67.12
2711;BME280;20721;47.402;8.550;2023-05-03T01:19:16;96690;;;11.49;67.05
2711;BME280;20721;47.402;8.550;2023-05-03T01:20:13;96690;;;11.47;67.15
2711;BME280;20721;47.402;8.550;2023-05-03T01:21:14;96690;;;11.44;67.25
2711;BME280;20721;47.402;8.550;2023-05-03T01:23:14;96689;;;11.44;67.30
2711;BME280;20721;47.402;8.550;2023-05-03T01:25:13;96689;;;11.46;67.25
2711;BME280;20721;47.402;8.550;2023-05-03T01:26:14;96690;;;11.49;67.09
2711;BME280;20721;47.402;8.550;2023-05-03T01:27:13;96690;;;11.52;67.07
2711;BME280;20721;47.402;8.550;2023-05-03T01:28:13;96690;;;11.54;66.93
2711;BME280;20721;47.402;8.550;2023-05-03T01:30:13;96687;;;11.55;66.75
2711;BME280;20721;47.402;8.550;2023-05-03T01:34:17;96682;;;11.50;66.90
2711;BME280;20721;47.402;8.550;2023-05-03T01:38:13;96677;;;11.48;66.97
2711;BME280;20721;47.402;8.550;2023-05-03T01:39:15;96679;;;11.45;67.04
2711;BME280;20721;47.402;8.550;2023-05-03T01:40:15;96680;;;11.48;66.98
2711;BME280;20721;47.402;8.550;2023-05-03T01:41:13;96679;;;11.49;66.90
2711;BME280;20721;47.402;8.550;2023-05-03T01:43:15;96683;;;11.50;66.91
2711;BME280;20721;47.402;8.550;2023-05-03T01:44:13;96683;;;11.53;66.70
2711;BME280;20721;47.402;8.550;2023-05-03T01:47:14;96681;;;11.51;66.46
2711;BME280;20721;47.402;8.550;2023-05-03T01:48:14;96676;;;11.49;66.65
2711;BME280;20721;47.402;8.550;2023-05-03T01:52:13;96672;;;11.48;66.36
2711;BME280;20721;47.402;8.550;2023-05-03T01:53:13;96675;;;11.43;66.45
2711;BME280;20721;47.402;8.550;2023-05-03T01:57:13;96674;;;11.41;66.51
2711;BME280;20721;47.402;8.550;2023-05-03T01:58:13;96673;;;11.42;66.38
2711;BME280;20721;47.402;8.550;2023-05-03T02:02:13;96673;;;11.40;66.40
2711;BME280;20721;47.402;8.550;2023-05-03T02:03:13;96670;;;11.39;66.27
2711;BME280;20721;47.402;8.550;2023-05-03T02:04:13;96672;;;11.41;66.22
2711;BME280;20721;47.402;8.550;2023-05-03T02:06:13;96672;;;11.40;66.25
2711;BME280;20721;47.402;8.550;2023-05-03T02:09:13;96672;;;11.42;66.23
2711;BME280;20721;47.402;8.550;2023-05-03T02:10:13;96672;;;11.41;66.18
2711;BME280;20721;47.402;8.550;2023-05-03T02:12:13;96670;;;11.40;66.16
2711;BME280;20721;47.402;8.550;2023-05-03T02:16:13;96675;;;11.38;66.12
2711;BME280;20721;47.402;8.550;2023-05-03T02:17:15;96676;;;11.40;66.07
2711;BME280;20721;47.402;8.550;2023-05-03T02:18:15;96677;;;11.37;66.22
2711;BME280;20721;47.402;8.550;2023-05-03T02:20:13;96679;;;11.34;66.11
2711;BME280;20721;47.402;8.550;2023-05-03T02:21:13;96680;;;11.33;66.11
2711;BME280;20721;47.402;8.550;2023-05-03T02:22:13;96682;;;11.35;66.02
2711;BME280;20721;47.402;8.550;2023-05-03T02:24:13;96683;;;11.34;65.86
2711;BME280;20721;47.402;8.550;2023-05-03T02:25:13;96685;;;11.33;65.80
2711;BME280;20721;47.402;8.550;2023-05-03T02:26:13;96684;;;11.30;66.12
2711;BME280;20721;47.402;8.550;2023-05-03T02:27:13;96684;;;11.25;66.18
2711;BME280;20721;47.402;8.550;2023-05-03T02:28:13;96683;;;11.23;66.20
2711;BME280;20721;47.402;8.550;2023-05-03T02:30:13;96678;;;11.24;66.12
2711;BME280;20721;47.402;8.550;2023-05-03T02:31:13;96681;;;11.23;66.13
2711;BME280;20721;47.402;8.550;2023-05-03T02:33:13;96677;;;11.24;66.06
2711;BME280;20721;47.402;8.550;2023-05-03T02:34:13;96674;;;11.25;65.97
2711;BME280;20721;47.402;8.550;2023-05-03T02:35:13;96676;;;11.24;66.05
2711;BME280;20721;47.402;8.550;2023-05-03T02:37:13;96672;;;11.19;65.99
2711;BME280;20721;47.402;8.550;2023-05-03T02:38:13;96672;;;11.17;66.26
2711;BME280;20721;47.402;8.550;2023-05-03T02:39:13;96671;;;11.16;66.29
2711;BME280;20721;47.402;8.550;2023-05-03T02:40:14;96670;;;11.11;66.30
2711;BME280;20721;47.402;8.550;2023-05-03T02:42:13;96669;;;11.10;66.36
2711;BME280;20721;47.402;8.550;2023-05-03T02:43:13;96669;;;11.11;66.44
2711;BME280;20721;47.402;8.550;2023-05-03T02:45:17;96668;;;11.09;66.21
2711;BME280;20721;47.402;8.550;2023-05-03T02:47:13;96669;;;11.08;66.15
2711;BME280;20721;47.402;8.550;2023-05-03T02:49:13;96671;;;11.10;65.99
2711;BME280;20721;47.402;8.550;2023-05-03T02:50:13;96670;;;11.12;65.89
2711;BME280;20721;47.402;8.550;2023-05-03T02:51:13;96670;;;11.10;65.88
2711;BME280;20721;47.402;8.550;2023-05-03T02:52:13;96675;;;11.13;65.80
2711;BME280;20721;47.402;8.550;2023-05-03T02:53:13;96669;;;11.11;65.74
2711;BME280;20721;47.402;8.550;2023-05-03T02:54:13;96671;;;11.08;65.72
2711;BME280;20721;47.402;8.550;2023-05-03T02:55:14;96671;;;11.07;65.74
2711;BME280;20721;47.402;8.550;2023-05-03T02:56:13;96671;;;11.06;65.68
2711;BME280;20721;47.402;8.550;2023-05-03T02:57:13;96673;;;11.03;65.73
2711;BME280;20721;47.402;8.550;2023-05-03T02:58:14;96670;;;11.01;65.69
2711;BME280;20721;47.402;8.550;2023-05-03T02:59:13;96669;;;10.97;65.82
2711;BME280;20721;47.402;8.550;2023-05-03T03:00:14;96668;;;10.92;65.92
2711;BME280;20721;47.402;8.550;2023-05-03T03:01:13;96669;;;10.86;66.05
2711;BME280;20721;47.402;8.550;2023-05-03T03:02:13;96662;;;10.85;66.29
2711;BME280;20721;47.402;8.550;2023-05-03T03:03:13;96665;;;10.82;66.41
2711;BME280;20721;47.402;8.550;2023-05-03T03:06:13;96662;;;10.80;66.79
2711;BME280;20721;47.402;8.550;2023-05-03T03:07:13;96663;;;10.79;66.87
2711;BME280;20721;47.402;8.550;2023-05-03T03:08:13;96662;;;10.77;66.96
2711;BME280;20721;47.402;8.550;2023-05-03T03:09:13;96664;;;10.73;67.12
2711;BME280;20721;47.402;8.550;2023-05-03T03:11:13;96666;;;10.74;67.33
2711;BME280;20721;47.402;8.550;2023-05-03T03:12:13;96666;;;10.76;67.16
2711;BME280;20721;47.402;8.550;2023-05-03T03:13:13;96664;;;10.77;66.99
2711;BME280;20721;47.402;8.550;2023-05-03T03:15:13;96667;;;10.78;67.08
2711;BME280;20721;47.402;8.550;2023-05-03T03:16:13;96667;;;10.77;67.14
2711;BME280;20721;47.402;8.550;2023-05-03T03:17:13;96668;;;10.76;67.15
2711;BME280;20721;47.402;8.550;2023-05-03T03:18:13;96664;;;10.75;67.05
2711;BME280;20721;47.402;8.550;2023-05-03T03:19:14;96665;;;10.76;67.19
2711;BME280;20721;47.402;8.550;2023-05-03T03:24:14;96664;;;10.73;67.36
2711;BME280;20721;47.402;8.550;2023-05-03T03:25:13;96664;;;10.75;67.42
2711;BME280;20721;47.402;8.550;2023-05-03T03:26:13;96663;;;10.73;67.36
2711;BME280;20721;47.402;8.550;2023-05-03T03:27:13;96659;;;10.72;67.38
2711;BME280;20721;47.402;8.550;2023-05-03T03:28:13;96662;;;10.73;67.41
2711;BME280;20721;47.402;8.550;2023-05-03T03:30:14;96660;;;10.72;67.52
2711;BME280;20721;47.402;8.550;2023-05-03T03:31:13;96662;;;10.71;67.57
2711;BME280;20721;47.402;8.550;2023-05-03T03:32:14;96663;;;10.70;67.57
2711;BME280;20721;47.402;8.550;2023-05-03T03:33:13;96665;;;10.69;67.51
2711;BME280;20721;47.402;8.550;2023-05-03T03:34:13;96668;;;10.70;67.55
2711;BME280;20721;47.402;8.550;2023-05-03T03:36:13;96666;;;10.72;67.55
2711;BME280;20721;47.402;8.550;2023-05-03T03:37:13;96667;;;10.74;67.42
2711;BME280;20721;47.402;8.550;2023-05-03T03:38:13;96667;;;10.76;67.48
2711;BME280;20721;47.402;8.550;2023-05-03T03:39:13;96666;;;10.78;67.31
2711;BME280;20721;47.402;8.550;2023-05-03T03:40:13;96665;;;10.79;67.42
2711;BME280;20721;47.402;8.550;2023-05-03T03:41:13;96664;;;10.81;67.26
2711;BME280;20721;47.402;8.550;2023-05-03T03:43:13;96665;;;10.80;67.14
2711;BME280;20721;47.402;8.550;2023-05-03T03:44:13;96664;;;10.78;67.16
2711;BME280;20721;47.402;8.550;2023-05-03T03:45:13;96662;;;10.80;67.05
2711;BME280;20721;47.402;8.550;2023-05-03T03:46:13;96664;;;10.82;67.18
2711;BME280;20721;47.402;8.550;2023-05-03T03:47:13;96665;;;10.83;67.17
2711;BME280;20721;47.402;8.550;2023-05-03T03:49:13;96664;;;10.84;66.95
2711;BME280;20721;47.402;8.550;2023-05-03T03:50:13;96662;;;10.83;67.02
2711;BME280;20721;47.402;8.550;2023-05-03T03:51:13;96659;;;10.82;66.94
2711;BME280;20721;47.402;8.550;2023-05-03T03:52:13;96660;;;10.83;66.98
2711;BME280;20721;47.402;8.550;2023-05-03T03:53:13;96663;;;10.81;66.91
2711;BME280;20721;47.402;8.550;2023-05-03T03:54:13;96665;;;10.80;66.85
2711;BME280;20721;47.402;8.550;2023-05-03T03:55:13;96663;;;10.81;66.85
2711;BME280;20721;47.402;8.550;2023-05-03T03:56:13;96666;;;10.82;66.80
2711;BME280;20721;47.402;8.550;2023-05-03T03:59:17;96668;;;10.83;66.71
2711;BME280;20721;47.402;8.550;2023-05-03T04:00:13;96664;;;10.85;66.64
2711;BME280;20721;47.402;8.550;2023-05-03T04:01:13;96668;;;10.84;66.59
2711;BME280;20721;47.402;8.550;2023-05-03T04:02:13;96668;;;10.80;66.80
2711;BME280;20721;47.402;8.550;2023-05-03T04:03:14;96663;;;10.78;66.82
2711;BME280;20721;47.402;8.550;2023-05-03T04:04:13;96665;;;10.80;66.86
2711;BME280;20721;47.402;8.550;2023-05-03T04:05:13;96662;;;10.79;66.77
2711;BME280;20721;47.402;8.550;2023-05-03T04:07:13;96663;;;10.78;66.77
2711;BME280;20721;47.402;8.550;2023-05-03T04:08:13;96659;;;10.79;66.74
2711;BME280;20721;47.402;8.550;2023-05-03T04:09:16;96665;;;10.78;66.76
2711;BME280;20721;47.402;8.550;2023-05-03T04:11:13;96659;;;10.76;66.72
2711;BME280;20721;47.402;8.550;2023-05-03T04:13:13;96661;;;10.74;66.59
2711;BME280;20721;47.402;8.550;2023-05-03T04:14:13;96662;;;10.67;66.70
2711;BME280;20721;47.402;8.550;2023-05-03T04:15:13;96661;;;10.61;66.84
2711;BME280;20721;47.402;8.550;2023-05-03T04:16:14;96665;;;10.52;67.12
2711;BME280;20721;47.402;8.550;2023-05-03T04:17:13;96665;;;10.49;67.36
2711;BME280;20721;47.402;8.550;2023-05-03T04:18:14;96665;;;10.46;67.36
2711;BME280;20721;47.402;8.550;2023-05-03T04:19:13;96665;;;10.45;67.33
2711;BME280;20721;47.402;8.550;2023-05-03T04:20:13;96669;;;10.46;67.36
2711;BME280;20721;47.402;8.550;2023-05-03T04:21:13;96669;;;10.44;67.24
2711;BME280;20721;47.402;8.550;2023-05-03T04:22:13;96671;;;10.42;67.47
2711;BME280;20721;47.402;8.550;2023-05-03T04:24:14;96672;;;10.43;67.39
2711;BME280;20721;47.402;8.550;2023-05-03T04:25:13;96674;;;10.45;67.33
2711;BME280;20721;47.402;8.550;2023-05-03T04:26:23;96671;;;10.49;67.17
2711;BME280;20721;47.402;8.550;2023-05-03T04:28:14;96670;;;10.50;67.06
2711;BME280;20721;47.402;8.550;2023-05-03T04:29:14;96669;;;10.49;67.08
2711;BME280;20721;47.402;8.550;2023-05-03T04:30:14;96671;;;10.48;67.14
2711;BME280;20721;47.402;8.550;2023-05-03T04:32:15;96670;;;10.46;67.04
2711;BME280;20721;47.402;8.550;2023-05-03T04:34:14;96677;;;10.45;67.12
2711;BME280;20721;47.402;8.550;2023-05-03T04:35:14;96675;;;10.46;67.11
2711;BME280;20721;47.402;8.550;2023-05-03T04:36:17;96674;;;10.45;66.95
2711;BME280;20721;47.402;8.550;2023-05-03T04:37:14;96678;;;10.44;66.87
2711;BME280;20721;47.402;8.550;2023-05-03T04:38:13;96677;;;10.40;66.92
2711;BME280;20721;47.402;8.550;2023-05-03T04:39:14;96680;;;10.36;67.11
2711;BME280;20721;47.402;8.550;2023-05-03T04:40:15;96678;;;10.35;67.05
2711;BME280;20721;47.402;8.550;2023-05-03T04:41:16;96679;;;10.31;67.18
2711;BME280;20721;47.402;8.550;2023-05-03T04:42:14;96681;;;10.28;67.37
2711;BME280;20721;47.402;8.550;2023-05-03T04:43:13;96674;;;10.26;67.48
2711;BME280;20721;47.402;8.550;2023-05-03T04:44:13;96681;;;10.29;67.61
2711;BME280;20721;47.402;8.550;2023-05-03T04:45:13;96678;;;10.34;67.39
2711;BME280;20721;47.402;8.550;2023-05-03T04:46:13;96680;;;10.36;67.32
2711;BME280;20721;47.402;8.550;2023-05-03T04:47:13;96679;;;10.42;67.19
2711;BME280;20721;47.402;8.550;2023-05-03T04:48:14;96682;;;10.47;67.11
2711;BME280;20721;47.402;8.550;2023-05-03T04:49:13;96683;;;10.51;66.96
2711;BME280;20721;47.402;8.550;2023-05-03T04:50:14;96684;;;10.52;67.04
2711;BME280;20721;47.402;8.550;2023-05-03T04:51:13;96688;;;10.57;66.94
2711;BME280;20721;47.402;8.550;2023-05-03T04:52:13;96689;;;10.60;66.87
2711;BME280;20721;47.402;8.550;2023-05-03T04:53:14;96692;;;10.61;66.82
2711;BME280;20721;47.402;8.550;2023-05-03T04:54:13;96695;;;10.62;66.82
2711;BME280;20721;47.402;8.550;2023-05-03T04:56:14;96696;;;10.60;66.89
2711;BME280;20721;47.402;8.550;2023-05-03T04:58:13;96698;;;10.61;67.40
2711;BME280;20721;47.402;8.550;2023-05-03T04:59:13;96695;;;10.63;67.21
2711;BME280;20721;47.402;8.550;2023-05-03T05:00:14;96698;;;10.67;67.37
2711;BME280;20721;47.402;8.550;2023-05-03T05:01:13;96699;;;10.73;67.28
2711;BME280;20721;47.402;8.550;2023-05-03T05:02:13;96700;;;10.76;67.23
2711;BME280;20721;47.402;8.550;2023-05-03T05:03:14;96705;;;10.81;67.25
2711;BME280;20721;47.402;8.550;2023-05-03T05:04:13;96702;;;10.87;67.02
2711;BME280;20721;47.402;8.550;2023-05-03T05:05:14;96707;;;10.95;66.91
2711;BME280;20721;47.402;8.550;2023-05-03T05:06:13;96704;;;11.01;66.72
2711;BME280;20721;47.402;8.550;2023-05-03T05:07:14;96706;;;11.07;66.46
2711;BME280;20721;47.402;8.550;2023-05-03T05:08:13;96706;;;11.10;66.21
2711;BME280;20721;47.402;8.550;2023-05-03T05:09:21;96703;;;11.11;66.31
2711;BME280;20721;47.402;8.550;2023-05-03T05:10:13;96706;;;11.15;66.37
2711;BME280;20721;47.402;8.550;2023-05-03T05:11:14;96706;;;11.17;66.23
2711;BME280;20721;47.402;8.550;2023-05-03T05:12:13;96704;;;11.22;65.99
2711;BME280;20721;47.402;8.550;2023-05-03T05:13:18;96713;;;11.23;65.71
2711;BME280;20721;47.402;8.550;2023-05-03T05:14:13;96713;;;11.18;65.72
2711;BME280;20721;47.402;8.550;2023-05-03T05:16:14;96715;;;11.13;65.99
2711;BME280;20721;47.402;8.550;2023-05-03T05:18:13;96716;;;11.11;66.00
2711;BME280;20721;47.402;8.550;2023-05-03T05:19:13;96718;;;11.12;66.28
2711;BME280;20721;47.402;8.550;2023-05-03T05:20:14;96718;;;11.16;66.37
2711;BME280;20721;47.402;8.550;2023-05-03T05:21:13;96723;;;11.21;66.33
2711;BME280;20721;47.402;8.550;2023-05-03T05:22:13;96721;;;11.28;66.17
2711;BME280;20721;47.402;8.550;2023-05-03T05:23:13;96720;;;11.30;66.08
2711;BME280;20721;47.402;8.550;2023-05-03T05:24:13;96721;;;11.31;66.17
2711;BME280;20721;47.402;8.550;2023-05-03T05:25:14;96726;;;11.34;66.06
2711;BME280;20721;47.402;8.550;2023-05-03T05:26:14;96724;;;11.37;65.78
2711;BME280;20721;47.402;8.550;2023-05-03T05:27:13;96727;;;11.40;65.86
2711;BME280;20721;47.402;8.550;2023-05-03T05:28:13;96729;;;11.41;65.72
2711;BME280;20721;47.402;8.550;2023-05-03T05:29:13;96729;;;11.43;65.70
2711;BME280;20721;47.402;8.550;2023-05-03T05:30:14;96730;;;11.47;65.70
2711;BME280;20721;47.402;8.550;2023-05-03T05:31:14;96734;;;11.51;65.67
2711;BME280;20721;47.402;8.550;2023-05-03T05:32:14;96732;;;11.49;65.45
2711;BME280;20721;47.402;8.550;2023-05-03T05:33:15;96732;;;11.52;65.49
2711;BME280;20721;47.402;8.550;2023-05-03T05:34:13;96733;;;11.48;65.27
2711;BME280;20721;47.402;8.550;2023-05-03T05:36:14;96734;;;11.46;65.50
2711;BME280;20721;47.402;8.550;2023-05-03T05:37:14;96734;;;11.44;65.47
2711;BME280;20721;47.402;8.550;2023-05-03T05:38:14;96735;;;11.39;65.38
2711;BME280;20721;47.402;8.550;2023-05-03T05:39:14;96737;;;11.31;65.50
2711;BME280;20721;47.402;8.550;2023-05-03T05:40:14;96740;;;11.15;65.73
2711;BME280;20721;47.402;8.550;2023-05-03T05:41:13;96735;;;11.07;66.13
2711;BME280;20721;47.402;8.550;2023-05-03T05:42:14;96741;;;11.03;66.36
2711;BME280;20721;47.402;8.550;2023-05-03T05:43:13;96739;;;11.04;66.66
2711;BME280;20721;47.402;8.550;2023-05-03T05:44:14;96735;;;11.02;66.50
2711;BME280;20721;47.402;8.550;2023-05-03T05:45:14;96739;;;11.04;66.45
2711;BME280;20721;47.402;8.550;2023-05-03T05:47:14;96737;;;11.02;66.57
2711;BME280;20721;47.402;8.550;2023-05-03T05:48:14;96740;;;11.06;66.76
2711;BME280;20721;47.402;8.550;2023-05-03T05:49:14;96738;;;11.03;66.42
2711;BME280;20721;47.402;8.550;2023-05-03T05:50:19;96737;;;11.01;66.50
2711;BME280;20721;47.402;8.550;2023-05-03T05:51:13;96737;;;11.03;66.71
2711;BME280;20721;47.402;8.550;2023-05-03T05:52:14;96733;;;11.05;66.66
2711;BME280;20721;47.402;8.550;2023-05-03T05:53:14;96735;;;11.01;66.71
2711;BME280;20721;47.402;8.550;2023-05-03T05:54:13;96736;;;11.00;66.65
2711;BME280;20721;47.402;8.550;2023-05-03T05:55:14;96734;;;10.98;66.66
2711;BME280;20721;47.402;8.550;2023-05-03T05:56:14;96736;;;10.97;66.45
2711;BME280;20721;47.402;8.550;2023-05-03T05:57:14;96736;;;10.87;66.72
2711;BME280;20721;47.402;8.550;2023-05-03T05:58:14;96738;;;10.79;67.02
2711;BME280;20721;47.402;8.550;2023-05-03T05:59:14;96738;;;10.76;67.19
2711;BME280;20721;47.402;8.550;2023-05-03T06:00:14;96739;;;10.75;67.15
2711;BME280;20721;47.402;8.550;2023-05-03T06:01:14;96735;;;10.69;67.52
2711;BME280;20721;47.402;8.550;2023-05-03T06:02:15;96732;;;10.66;67.46
2711;BME280;20721;47.402;8.550;2023-05-03T06:03:14;96731;;;10.63;67.45
2711;BME280;20721;47.402;8.550;2023-05-03T06:04:14;96731;;;10.60;67.92
2711;BME280;20721;47.402;8.550;2023-05-03T06:05:14;96727;;;10.62;68.14
2711;BME280;20721;47.402;8.550;2023-05-03T06:06:14;96731;;;10.66;67.79
2711;BME280;20721;47.402;8.550;2023-05-03T06:07:15;96726;;;10.72;67.57
2711;BME280;20721;47.402;8.550;2023-05-03T06:08:14;96727;;;10.82;67.56
2711;BME280;20721;47.402;8.550;2023-05-03T06:09:23;96728;;;10.91;67.44
2711;BME280;20721;47.402;8.550;2023-05-03T06:10:14;96732;;;10.99;67.20
2711;BME280;20721;47.402;8.550;2023-05-03T06:11:14;96725;;;11.02;66.80
2711;BME280;20721;47.402;8.550;2023-05-03T06:12:14;96730;;;11.01;66.68
2711;BME280;20721;47.402;8.550;2023-05-03T06:13:14;96729;;;10.97;66.71
2711;BME280;20721;47.402;8.550;2023-05-03T06:14:14;96732;;;10.93;66.89
2711;BME280;20721;47.402;8.550;2023-05-03T06:15:14;96730;;;10.88;67.06
2711;BME280;20721;47.402;8.550;2023-05-03T06:16:14;96734;;;10.82;67.09
2711;BME280;20721;47.402;8.550;2023-05-03T06:17:14;96737;;;10.71;67.14
2711;BME280;20721;47.402;8.550;2023-05-03T06:18:14;96734;;;10.65;67.51
2711;BME280;20721;47.402;8.550;2023-05-03T06:19:14;96730;;;10.67;67.65
2711;BME280;20721;47.402;8.550;2023-05-03T06:20:15;96727;;;10.69;67.56
2711;BME280;20721;47.402;8.550;2023-05-03T06:21:14;96730;;;10.60;67.57
2711;BME280;20721;47.402;8.550;2023-05-03T06:22:14;96727;;;10.56;67.68
2711;BME280;20721;47.402;8.550;2023-05-03T06:23:14;96728;;;10.44;67.48
2711;BME280;20721;47.402;8.550;2023-05-03T06:24:19;96726;;;10.31;68.00
2711;BME280;20721;47.402;8.550;2023-05-03T06:25:17;96729;;;10.16;68.80
2711;BME280;20721;47.402;8.550;2023-05-03T06:26:16;96730;;;10.06;68.94
2711;BME280;20721;47.402;8.550;2023-05-03T06:27:18;96736;;;10.08;69.11
2711;BME280;20721;47.402;8.550;2023-05-03T06:28:14;96736;;;10.10;69.13
2711;BME280;20721;47.402;8.550;2023-05-03T06:29:14;96732;;;10.16;69.18
2711;BME280;20721;47.402;8.550;2023-05-03T06:30:14;96736;;;10.14;69.33
2711;BME280;20721;47.402;8.550;2023-05-03T06:31:14;96742;;;10.12;69.41
2711;BME280;20721;47.402;8.550;2023-05-03T06:32:14;96736;;;10.15;68.91
2711;BME280;20721;47.402;8.550;2023-05-03T06:34:15;96738;;;10.20;68.70
2711;BME280;20721;47.402;8.550;2023-05-03T06:35:14;96742;;;10.18;68.70
2711;BME280;20721;47.402;8.550;2023-05-03T06:36:14;96735;;;10.23;68.65
2711;BME280;20721;47.402;8.550;2023-05-03T06:37:14;96741;;;10.19;68.58
2711;BME280;20721;47.402;8.550;2023-05-03T06:38:14;96741;;;10.14;68.63
2711;BME280;20721;47.402;8.550;2023-05-03T06:39:14;96740;;;10.11;68.91
2711;BME280;20721;47.402;8.550;2023-05-03T06:40:14;96742;;;10.16;68.76
2711;BME280;20721;47.402;8.550;2023-05-03T06:41:14;96741;;;10.18;68.83
2711;BME280;20721;47.402;8.550;2023-05-03T06:42:14;96742;;;10.17;69.09
2711;BME280;20721;47.402;8.550;2023-05-03T06:43:14;96735;;;10.21;68.94
2711;BME280;20721;47.402;8.550;2023-05-03T06:44:14;96738;;;10.25;68.79
2711;BME280;20721;47.402;8.550;2023-05-03T06:45:14;96737;;;10.38;68.70
2711;BME280;20721;47.402;8.550;2023-05-03T06:46:14;96738;;;10.49;68.20
2711;BME280;20721;47.402;8.550;2023-05-03T06:47:14;96736;;;10.59;68.14
2711;BME280;20721;47.402;8.550;2023-05-03T06:48:14;96739;;;10.71;67.98
2711;BME280;20721;47.402;8.550;2023-05-03T06:49:14;96734;;;10.86;67.75
2711;BME280;20721;47.402;8.550;2023-05-03T06:50:14;96734;;;10.94;66.99
2711;BME280;20721;47.402;8.550;2023-05-03T06:51:14;96738;;;11.00;66.96
2711;BME280;20721;47.402;8.550;2023-05-03T06:52:14;96732;;;11.05;66.66
2711;BME280;20721;47.402;8.550;2023-05-03T06:53:14;96742;;;11.04;66.39
2711;BME280;20721;47.402;8.550;2023-05-03T06:54:14;96734;;;11.09;66.10